Terminal Aerodrome Forecast
Issued by NWS Topeka, KS

Home | Current Version | Previous Version | Text Only | Print | Product List | Glossary Off
Versions: 1 2 3 4 5 6 7 8 9 10 11 12 13

777
FTUS43 KTOP 251415 AAA
TAFTOP
TAF AMD
KTOP 251415Z 2514/2612 VRB05KT P6SM VCSH BKN050 OVC120
     FM251600 07008KT P6SM SCT070 BKN150=

USA.gov is the U.S. government's official web portal to all federal, state and local government web resources and services.